Time;durP1;ratioP1;P1;durP2;ratioP2;P2;SDS_P1;SDS_P2;PMS_P1;PMS_P2;Temp;Humidity;BMP_temperature;BMP_pressure;BME280_temperature;BME280_humidity;BME280_pressure;Samples;Min_cycle;Max_cycle;Signal;HPM_P1;HPM_P2
2024/01/27 00:02:16;;;;;;;11.93;2.90;;;3.70;99.90;;;;;;5068043;28;20131;-61
2024/01/27 00:04:42;;;;;;;10.48;2.90;;;3.50;99.90;;;;;;5068252;28;20456;-61
2024/01/27 00:07:08;;;;;;;10.52;3.05;;;3.40;99.90;;;;;;5054591;28;20350;-61
2024/01/27 00:09:35;;;;;;;7.95;2.90;;;3.50;99.90;;;;;;5047571;28;20057;-61
2024/01/27 00:12:01;;;;;;;10.05;3.35;;;3.40;99.90;;;;;;5048001;28;20146;-61
2024/01/27 00:14:28;;;;;;;9.80;2.83;;;3.40;99.90;;;;;;5048049;28;20056;-61
2024/01/27 00:16:54;;;;;;;12.27;3.42;;;3.60;99.90;;;;;;5057702;28;20473;-61
2024/01/27 00:19:20;;;;;;;10.27;3.20;;;3.60;99.90;;;;;;5067867;28;20053;-61
2024/01/27 00:21:46;;;;;;;14.90;4.57;;;3.50;99.90;;;;;;5067967;28;20385;-62
2024/01/27 00:24:13;;;;;;;21.10;4.50;;;3.50;99.90;;;;;;5068529;28;20097;-62
2024/01/27 00:26:40;;;;;;;20.38;4.50;;;3.40;99.90;;;;;;5058452;28;20045;-62
2024/01/27 00:29:06;;;;;;;14.00;3.33;;;3.30;99.90;;;;;;5047673;28;20053;-62
2024/01/27 00:31:32;;;;;;;10.93;3.15;;;3.40;99.90;;;;;;5047814;28;20048;-61
2024/01/27 00:33:59;;;;;;;10.60;3.20;;;3.30;99.90;;;;;;5047669;28;20055;-61
2024/01/27 00:36:27;;;;;;;10.35;3.40;;;3.30;99.90;;;;;;5053579;28;20044;-61
2024/01/27 00:38:53;;;;;;;9.98;3.20;;;3.50;99.90;;;;;;5071690;28;20064;-60
2024/01/27 00:41:19;;;;;;;8.93;3.10;;;3.40;99.90;;;;;;5071612;28;20049;-61
2024/01/27 00:43:46;;;;;;;13.50;3.85;;;3.30;99.90;;;;;;5072032;28;20096;-61
2024/01/27 00:46:12;;;;;;;10.15;3.13;;;3.20;99.90;;;;;;5066575;28;20045;-61
2024/01/27 00:48:38;;;;;;;12.82;3.95;;;3.20;99.90;;;;;;5049839;28;20424;-62
2024/01/27 00:51:04;;;;;;;15.55;4.40;;;3.20;99.90;;;;;;5051243;28;20056;-62
2024/01/27 00:53:31;;;;;;;7.75;3.40;;;3.20;99.90;;;;;;5051572;28;20053;-61
2024/01/27 00:55:57;;;;;;;8.18;3.05;;;3.00;99.90;;;;;;5053907;28;20062;-62
2024/01/27 00:58:23;;;;;;;10.27;3.70;;;2.90;99.90;;;;;;5070721;28;20461;-61
2024/01/27 01:00:50;;;;;;;12.10;3.78;;;3.00;99.90;;;;;;5071472;28;20052;-61
2024/01/27 01:03:16;;;;;;;10.50;3.33;;;2.80;99.90;;;;;;5071474;28;20053;-60
2024/01/27 01:05:44;;;;;;;13.55;3.45;;;3.00;99.90;;;;;;5070915;28;20052;-62
2024/01/27 01:08:10;;;;;;;9.95;3.22;;;2.80;99.90;;;;;;5050634;28;20372;-62
2024/01/27 01:10:36;;;;;;;9.32;3.33;;;2.80;99.90;;;;;;5051054;28;20079;-61
2024/01/27 01:13:03;;;;;;;13.07;3.55;;;2.80;99.90;;;;;;5051201;28;20058;-61
2024/01/27 01:15:29;;;;;;;13.73;3.92;;;2.70;99.90;;;;;;5051045;28;20057;-62
2024/01/27 01:17:55;;;;;;;10.95;3.53;;;2.70;99.90;;;;;;5069110;28;20079;-61
2024/01/27 01:20:22;;;;;;;11.15;4.10;;;2.90;99.90;;;;;;5070811;28;20290;-62
2024/01/27 01:22:48;;;;;;;10.40;3.58;;;2.80;99.90;;;;;;5070846;28;20404;-61
2024/01/27 01:25:14;;;;;;;10.45;3.58;;;2.90;99.90;;;;;;5070837;28;20271;-61
2024/01/27 01:27:40;;;;;;;12.18;4.03;;;2.70;99.90;;;;;;5053766;28;20060;-61
2024/01/27 01:30:07;;;;;;;6.82;2.83;;;2.70;99.90;;;;;;5050918;28;20462;-61
2024/01/27 01:32:34;;;;;;;13.82;2.92;;;2.90;99.90;;;;;;5050633;28;20335;-61
2024/01/27 01:35:00;;;;;;;10.48;3.13;;;2.90;99.90;;;;;;5050830;28;20368;-62
2024/01/27 01:37:27;;;;;;;10.82;3.10;;;2.80;99.90;;;;;;5064483;28;20074;-62
2024/01/27 01:39:53;;;;;;;9.00;3.25;;;2.80;99.90;;;;;;5070676;28;20060;-62
2024/01/27 01:42:23;;;;;;;11.27;3.53;;;2.70;99.90;;;;;;5071278;28;20048;-60
2024/01/27 01:44:49;;;;;;;11.20;3.38;;;2.80;99.90;;;;;;5071128;28;20052;-60
2024/01/27 01:47:15;;;;;;;14.20;4.00;;;2.70;99.90;;;;;;5057206;28;20136;-61
2024/01/27 01:49:42;;;;;;;12.18;3.80;;;2.90;99.90;;;;;;5049827;28;20066;-62
2024/01/27 01:52:09;;;;;;;16.17;3.60;;;2.70;99.90;;;;;;5050679;28;20044;-61
2024/01/27 01:54:35;;;;;;;10.23;2.95;;;2.70;99.90;;;;;;5050367;28;20078;-62
2024/01/27 01:57:03;;;;;;;10.25;2.95;;;2.90;99.90;;;;;;5060573;28;20048;-61
2024/01/27 01:59:29;;;;;;;7.80;3.42;;;2.80;99.90;;;;;;5070738;28;20054;-61
2024/01/27 02:01:55;;;;;;;7.70;2.70;;;2.80;99.90;;;;;;5070207;28;20055;-62
2024/01/27 02:04:22;;;;;;;15.15;3.08;;;2.80;99.90;;;;;;5070495;28;20051;-61
2024/01/27 02:06:48;;;;;;;20.45;3.72;;;2.60;99.90;;;;;;5060588;28;20064;-62
2024/01/27 02:09:15;;;;;;;9.75;3.13;;;2.60;99.90;;;;;;5050312;28;20389;-61
2024/01/27 02:11:41;;;;;;;10.88;3.05;;;2.60;99.90;;;;;;5050287;28;20049;-61
2024/01/27 02:14:07;;;;;;;12.00;3.55;;;2.70;99.90;;;;;;5048866;28;20053;-61
2024/01/27 02:16:34;;;;;;;13.00;2.78;;;2.60;99.90;;;;;;5056036;28;20056;-60
2024/01/27 02:19:00;;;;;;;9.07;3.05;;;2.60;99.90;;;;;;5070480;28;20375;-62
2024/01/27 02:21:26;;;;;;;12.30;3.40;;;2.50;99.90;;;;;;5069933;28;20053;-61
2024/01/27 02:23:52;;;;;;;9.95;3.83;;;2.50;99.90;;;;;;5069837;28;20539;-61
2024/01/27 02:26:19;;;;;;;8.73;3.85;;;2.50;99.90;;;;;;5064518;28;20393;-61
2024/01/27 02:28:45;;;;;;;9.70;3.28;;;2.40;99.90;;;;;;5049711;28;20059;-61
2024/01/27 02:31:11;;;;;;;13.10;4.25;;;2.60;99.90;;;;;;5049917;28;20131;-63
2024/01/27 02:33:37;;;;;;;18.90;4.18;;;2.50;99.90;;;;;;5050271;28;20052;-62
2024/01/27 02:36:04;;;;;;;9.80;3.35;;;2.50;99.90;;;;;;5051494;28;20682;-61
2024/01/27 02:38:30;;;;;;;10.30;3.55;;;2.50;99.90;;;;;;5069004;28;20049;-62
2024/01/27 02:40:57;;;;;;;10.45;3.30;;;2.50;99.90;;;;;;5069346;28;20070;-61
2024/01/27 02:43:23;;;;;;;8.07;3.05;;;2.50;99.90;;;;;;5069547;28;20052;-63
2024/01/27 02:45:49;;;;;;;9.73;3.42;;;2.30;99.90;;;;;;5068449;28;20051;-62
2024/01/27 02:48:15;;;;;;;10.68;3.83;;;2.40;99.90;;;;;;5049036;28;20175;-61
2024/01/27 02:50:41;;;;;;;12.93;3.53;;;2.40;99.90;;;;;;5049190;28;20499;-61
2024/01/27 02:53:08;;;;;;;10.82;3.85;;;2.40;99.90;;;;;;5048716;28;20477;-60
2024/01/27 02:55:34;;;;;;;12.63;3.78;;;2.30;99.90;;;;;;5049144;28;20049;-61
2024/01/27 02:58:00;;;;;;;10.48;3.55;;;2.20;99.90;;;;;;5067065;28;20063;-61
2024/01/27 03:00:26;;;;;;;10.55;3.05;;;2.30;99.90;;;;;;5068483;28;20064;-61
2024/01/27 03:02:54;;;;;;;12.45;3.85;;;2.40;99.90;;;;;;5068569;28;20060;-62
2024/01/27 03:05:20;;;;;;;11.68;4.03;;;2.40;99.90;;;;;;5067129;28;20330;-60
2024/01/27 03:07:46;;;;;;;12.98;3.55;;;2.30;99.90;;;;;;5067201;28;20098;-62
2024/01/27 03:10:12;;;;;;;9.57;3.55;;;2.40;99.90;;;;;;5068815;28;20277;-61
2024/01/27 03:12:39;;;;;;;11.65;3.83;;;2.30;99.90;;;;;;5069109;28;20049;-62
2024/01/27 03:15:05;;;;;;;10.60;3.55;;;2.20;99.90;;;;;;5068909;28;20083;-63
2024/01/27 03:17:32;;;;;;;11.50;3.78;;;2.40;99.90;;;;;;5066491;28;20059;-62
2024/01/27 03:19:58;;;;;;;13.00;3.35;;;2.20;99.90;;;;;;5068362;28;20078;-61
2024/01/27 03:22:24;;;;;;;12.30;3.35;;;2.40;99.90;;;;;;5068210;28;20041;-61
2024/01/27 03:24:53;;;;;;;11.77;3.63;;;2.30;99.90;;;;;;5068839;28;20052;-63
2024/01/27 03:27:19;;;;;;;18.58;4.05;;;2.40;99.90;;;;;;5066536;28;20090;-62
2024/01/27 03:29:45;;;;;;;17.90;3.50;;;2.20;99.90;;;;;;5067924;28;20103;-62
2024/01/27 03:32:11;;;;;;;13.40;4.25;;;2.20;99.90;;;;;;5068514;28;20495;-61
2024/01/27 03:34:46;;;;;;;9.43;3.25;;;2.10;99.90;;;;;;5068262;28;20514;-60
2024/01/27 03:37:12;;;;;;;7.95;3.13;;;2.10;99.90;;;;;;5056662;28;20057;-61
2024/01/27 03:39:41;;;;;;;12.30;3.10;;;2.20;99.90;;;;;;5049069;28;20053;-61
2024/01/27 03:42:07;;;;;;;8.30;3.15;;;2.10;99.90;;;;;;5048707;28;20052;-61
2024/01/27 03:44:34;;;;;;;12.93;3.33;;;2.30;99.90;;;;;;5047578;28;20045;-61
2024/01/27 03:47:00;;;;;;;13.00;3.67;;;2.20;99.90;;;;;;5057598;28;20453;-61
2024/01/27 03:49:26;;;;;;;7.18;3.00;;;2.30;99.90;;;;;;5068542;28;20384;-62
2024/01/27 03:51:52;;;;;;;14.68;3.95;;;2.10;99.90;;;;;;5068818;28;20078;-61
2024/01/27 03:54:20;;;;;;;10.65;3.78;;;2.30;99.90;;;;;;5068282;28;20072;-62
2024/01/27 03:56:47;;;;;;;10.90;4.28;;;2.20;99.90;;;;;;5059723;28;20445;-63
2024/01/27 03:59:13;;;;;;;9.30;3.55;;;2.10;99.90;;;;;;5048566;28;20045;-62
2024/01/27 04:01:39;;;;;;;14.15;3.60;;;2.20;99.90;;;;;;5048215;28;20053;-61
2024/01/27 04:04:05;;;;;;;14.18;4.15;;;2.20;99.90;;;;;;5048571;28;20064;-61
2024/01/27 04:06:39;;;;;;;13.55;4.50;;;2.30;99.90;;;;;;5053329;28;20040;-61
2024/01/27 04:09:09;;;;;;;10.85;4.22;;;2.10;99.90;;;;;;5066841;28;20044;-62
2024/01/27 04:11:36;;;;;;;9.63;3.30;;;2.00;99.90;;;;;;5067924;28;20402;-64
2024/01/27 04:14:04;;;;;;;9.90;3.72;;;2.00;99.90;;;;;;5066613;28;20483;-62
2024/01/27 04:16:30;;;;;;;9.70;4.22;;;2.10;99.90;;;;;;5062340;28;20041;-62
2024/01/27 04:18:58;;;;;;;11.93;3.45;;;2.10;99.90;;;;;;5047970;28;20069;-61
2024/01/27 04:21:24;;;;;;;12.18;3.97;;;2.20;99.90;;;;;;5047801;28;20095;-62
2024/01/27 04:23:51;;;;;;;11.88;3.47;;;2.10;99.90;;;;;;5046485;28;20114;-62
2024/01/27 04:26:17;;;;;;;12.18;3.60;;;2.20;99.90;;;;;;5050711;28;20052;-61
2024/01/27 04:28:43;;;;;;;10.90;3.45;;;2.00;99.90;;;;;;5066819;28;20119;-61
2024/01/27 04:31:09;;;;;;;11.60;3.40;;;2.00;99.90;;;;;;5068123;28;20055;-62
2024/01/27 04:33:36;;;;;;;10.80;3.83;;;2.20;99.90;;;;;;5067800;28;20162;-63
2024/01/27 04:36:02;;;;;;;13.00;3.60;;;2.10;99.90;;;;;;5065892;28;20056;-62
2024/01/27 04:38:28;;;;;;;8.38;3.38;;;2.00;99.90;;;;;;5047420;28;20469;-62
2024/01/27 04:40:55;;;;;;;11.10;3.35;;;2.00;99.90;;;;;;5048171;28;20330;-60
2024/01/27 04:43:21;;;;;;;9.63;3.05;;;2.00;99.90;;;;;;5047545;28;20063;-60
2024/01/27 04:45:49;;;;;;;15.55;3.53;;;2.20;99.90;;;;;;5047505;28;20357;-61
2024/01/27 04:48:15;;;;;;;11.40;3.55;;;2.00;99.90;;;;;;5067417;28;20052;-62
2024/01/27 04:50:42;;;;;;;13.70;3.25;;;2.10;99.90;;;;;;5066714;28;20064;-61
2024/01/27 04:53:08;;;;;;;10.95;4.45;;;2.00;99.90;;;;;;5067238;28;20048;-61
2024/01/27 04:55:34;;;;;;;10.93;3.10;;;2.00;99.90;;;;;;5067604;28;20492;-61
2024/01/27 04:58:01;;;;;;;13.95;4.07;;;2.10;99.90;;;;;;5049380;28;20469;-61
2024/01/27 05:00:28;;;;;;;13.50;3.92;;;2.00;99.90;;;;;;5047606;28;20091;-61
2024/01/27 05:02:54;;;;;;;9.45;3.22;;;2.20;99.90;;;;;;5047553;28;20099;-62
2024/01/27 05:05:20;;;;;;;10.98;3.22;;;2.10;99.90;;;;;;5046926;28;20044;-63
2024/01/27 05:07:47;;;;;;;11.73;3.22;;;2.10;99.90;;;;;;5062115;28;20045;-63
2024/01/27 05:10:16;;;;;;;10.95;3.47;;;2.00;99.90;;;;;;5067885;28;20072;-61
2024/01/27 05:12:42;;;;;;;12.77;4.07;;;2.10;99.90;;;;;;5067759;28;20063;-63
2024/01/27 05:15:10;;;;;;;12.93;4.28;;;2.20;99.90;;;;;;5067427;28;20052;-62
2024/01/27 05:17:36;;;;;;;11.98;4.82;;;2.00;99.90;;;;;;5052774;28;20560;-61
2024/01/27 05:20:04;;;;;;;15.65;4.43;;;2.00;99.90;;;;;;5047646;28;20060;-63
2024/01/27 05:22:30;;;;;;;15.15;4.63;;;1.90;99.90;;;;;;5047497;28;20052;-63
2024/01/27 05:24:57;;;;;;;13.70;5.05;;;2.00;99.90;;;;;;5049144;28;20068;-62
2024/01/27 05:27:23;;;;;;;11.73;5.43;;;2.10;99.90;;;;;;5062449;28;20150;-62
2024/01/27 05:29:49;;;;;;;11.60;4.93;;;2.10;99.90;;;;;;5071135;28;20044;-62
2024/01/27 05:32:16;;;;;;;12.02;4.68;;;1.90;99.90;;;;;;5071199;28;20052;-61
2024/01/27 05:34:42;;;;;;;15.10;4.95;;;1.90;99.90;;;;;;5070539;28;20449;-62
2024/01/27 05:37:08;;;;;;;13.35;5.20;;;2.10;99.90;;;;;;5060014;28;20132;-62
2024/01/27 05:39:35;;;;;;;9.27;4.88;;;1.80;99.90;;;;;;5050755;28;20068;-62
2024/01/27 05:42:01;;;;;;;12.00;4.70;;;2.00;99.90;;;;;;5050708;28;20052;-61
2024/01/27 05:44:27;;;;;;;11.15;5.30;;;1.70;99.90;;;;;;5050780;28;20071;-60
2024/01/27 05:46:53;;;;;;;10.43;4.78;;;1.70;99.90;;;;;;5057822;28;20056;-61
2024/01/27 05:49:20;;;;;;;13.82;5.13;;;1.70;99.90;;;;;;5066448;28;20044;-61
2024/01/27 05:51:46;;;;;;;11.98;5.47;;;1.70;99.90;;;;;;5050872;28;20048;-62
2024/01/27 05:54:14;;;;;;;17.17;6.60;;;1.70;99.90;;;;;;5050496;28;20057;-62
2024/01/27 05:56:40;;;;;;;15.98;6.45;;;1.90;99.90;;;;;;5054729;28;20071;-62
2024/01/27 05:59:07;;;;;;;8.73;5.45;;;1.90;99.90;;;;;;5072208;28;20048;-61
2024/01/27 06:01:33;;;;;;;13.60;6.45;;;1.80;99.90;;;;;;5073386;28;20056;-62
2024/01/27 06:03:59;;;;;;;15.88;5.95;;;1.90;99.90;;;;;;5069930;28;20052;-60
2024/01/27 06:06:26;;;;;;;11.52;5.68;;;1.70;99.90;;;;;;5065543;28;20393;-60
2024/01/27 06:08:52;;;;;;;12.18;5.50;;;1.70;99.90;;;;;;5050144;28;20049;-62
2024/01/27 06:11:25;;;;;;;11.40;5.28;;;1.60;99.90;;;;;;5050178;28;20091;-62
2024/01/27 06:13:51;;;;;;;15.15;5.60;;;1.80;99.90;;;;;;5050038;28;20053;-60
2024/01/27 06:16:21;;;;;;;12.27;6.65;;;1.60;99.90;;;;;;5051783;28;20400;-62
2024/01/27 06:18:47;;;;;;;14.07;6.60;;;1.60;99.90;;;;;;5070193;28;20052;-59
2024/01/27 06:21:13;;;;;;;14.35;6.10;;;1.80;99.90;;;;;;5069879;28;20397;-61
2024/01/27 06:23:41;;;;;;;11.70;5.78;;;1.70;99.90;;;;;;5068850;28;20048;-60
2024/01/27 06:26:09;;;;;;;12.25;5.40;;;1.90;99.90;;;;;;5064088;28;20162;-60
2024/01/27 06:28:36;;;;;;;14.35;6.25;;;1.90;99.90;;;;;;5070426;28;20103;-63
2024/01/27 06:31:07;;;;;;;13.30;6.25;;;1.60;99.90;;;;;;5070082;28;20040;-62
2024/01/27 06:33:35;;;;;;;16.42;6.70;;;1.80;99.90;;;;;;5070091;28;20044;-59
2024/01/27 06:36:01;;;;;;;13.43;5.78;;;1.50;99.90;;;;;;5068688;28;20059;-62
2024/01/27 06:38:27;;;;;;;15.73;6.10;;;1.60;99.90;;;;;;5049690;28;20056;-60
2024/01/27 06:40:54;;;;;;;9.55;5.68;;;1.50;99.90;;;;;;5049742;28;20049;-59
2024/01/27 06:43:20;;;;;;;12.40;6.68;;;1.50;99.90;;;;;;5049574;28;20428;-60
2024/01/27 06:45:46;;;;;;;11.43;5.72;;;1.50;99.90;;;;;;5066735;28;20063;-61
2024/01/27 06:48:13;;;;;;;14.45;6.38;;;1.60;99.90;;;;;;5064540;28;20052;-60
2024/01/27 06:50:40;;;;;;;14.38;6.53;;;1.50;99.90;;;;;;5068903;28;20055;-61
2024/01/27 06:53:06;;;;;;;12.90;5.95;;;1.50;99.90;;;;;;5067243;28;20048;-59
2024/01/27 06:55:32;;;;;;;12.15;5.70;;;1.70;99.90;;;;;;5068307;28;20468;-60
2024/01/27 06:57:59;;;;;;;17.38;6.53;;;1.50;99.90;;;;;;5067736;28;20049;-60
2024/01/27 07:00:25;;;;;;;14.20;5.68;;;1.60;99.90;;;;;;5069250;28;20104;-60
2024/01/27 07:02:51;;;;;;;12.98;6.43;;;1.60;99.90;;;;;;5069396;28;20052;-59
2024/01/27 07:05:18;;;;;;;14.75;6.13;;;1.60;99.90;;;;;;5069679;28;20048;-60
2024/01/27 07:07:44;;;;;;;13.48;6.30;;;1.40;99.90;;;;;;5067997;28;20067;-60
2024/01/27 07:10:10;;;;;;;15.13;6.03;;;1.50;99.90;;;;;;5068713;28;20052;-59
2024/01/27 07:12:36;;;;;;;13.18;5.97;;;1.60;99.90;;;;;;5067660;28;20056;-60
2024/01/27 07:15:03;;;;;;;14.82;6.63;;;1.60;99.90;;;;;;5069197;28;20064;-60
2024/01/27 07:17:32;;;;;;;13.30;5.88;;;1.60;99.90;;;;;;5055975;28;20053;-60
2024/01/27 07:19:58;;;;;;;11.40;6.28;;;1.40;99.90;;;;;;5049066;28;20110;-59
2024/01/27 07:22:25;;;;;;;14.20;6.78;;;1.60;99.90;;;;;;5053495;28;20246;-62
2024/01/27 07:24:52;;;;;;;13.20;5.72;;;1.70;99.90;;;;;;5069184;28;20060;-63
2024/01/27 07:27:19;;;;;;;15.27;5.78;;;1.70;99.90;;;;;;5057691;28;20076;-62
2024/01/27 07:29:45;;;;;;;14.80;6.18;;;1.70;99.90;;;;;;5048904;28;20064;-60
2024/01/27 07:32:13;;;;;;;19.92;6.85;;;1.50;99.90;;;;;;5048796;28;20060;-63
2024/01/27 07:34:45;;;;;;;17.30;6.03;;;1.50;99.90;;;;;;5048617;28;20128;-60
2024/01/27 07:37:11;;;;;;;;;;;1.50;99.90;;;;;;5054767;28;20059;-61
2024/01/27 07:39:37;;;;;;;11.40;6.50;;;1.70;99.90;;;;;;5068326;28;20325;-62
2024/01/27 07:42:04;;;;;;;11.40;5.82;;;1.70;99.90;;;;;;5068445;28;20058;-62
2024/01/27 07:44:30;;;;;;;16.38;6.60;;;1.50;99.90;;;;;;5068311;28;20052;-60
2024/01/27 07:46:56;;;;;;;14.57;7.03;;;1.50;99.90;;;;;;5065683;28;20044;-60
2024/01/27 07:49:23;;;;;;;15.05;6.53;;;1.60;99.90;;;;;;5067347;28;20043;-59
2024/01/27 07:51:49;;;;;;;16.67;6.93;;;1.70;99.90;;;;;;5067995;28;20044;-60
2024/01/27 07:54:16;;;;;;;14.43;6.35;;;1.50;99.90;;;;;;5066227;28;20134;-61
2024/01/27 07:56:43;;;;;;;15.43;7.32;;;1.50;99.90;;;;;;5062046;28;20074;-61
2024/01/27 07:59:13;;;;;;;12.50;6.72;;;1.60;99.90;;;;;;5047818;28;20064;-58
2024/01/27 08:01:40;;;;;;;12.38;6.50;;;1.70;99.90;;;;;;5047831;28;20048;-60
2024/01/27 08:04:07;;;;;;;13.95;6.70;;;1.60;99.90;;;;;;5046929;28;20057;-62
2024/01/27 08:06:34;;;;;;;12.43;7.95;;;1.80;99.90;;;;;;5036480;28;20041;-58
2024/01/27 08:09:00;;;;;;;10.43;7.25;;;1.60;99.90;;;;;;5067070;28;20410;-59
2024/01/27 08:11:27;;;;;;;12.77;7.38;;;2.00;99.90;;;;;;5067752;28;20059;-60
2024/01/27 08:13:53;;;;;;;12.85;8.23;;;1.70;99.90;;;;;;5067787;28;20048;-61
2024/01/27 08:16:20;;;;;;;13.00;7.32;;;1.60;99.90;;;;;;5064978;28;20059;-61
2024/01/27 08:18:46;;;;;;;11.82;7.45;;;1.70;99.90;;;;;;5066086;28;20106;-60
2024/01/27 08:21:12;;;;;;;14.38;7.18;;;2.00;99.90;;;;;;5065119;28;20366;-58
2024/01/27 08:23:39;;;;;;;18.13;7.30;;;1.80;99.90;;;;;;5063866;28;20048;-58
2024/01/27 08:26:06;;;;;;;16.20;7.78;;;2.10;99.90;;;;;;5065495;28;20583;-59
2024/01/27 08:28:32;;;;;;;11.88;7.55;;;2.20;99.90;;;;;;5067235;28;20051;-59
2024/01/27 08:30:59;;;;;;;18.15;8.15;;;2.30;99.90;;;;;;5064142;28;20392;-61
2024/01/27 08:33:26;;;;;;;13.27;7.78;;;2.30;99.90;;;;;;5067280;28;20054;-60
2024/01/27 08:35:52;;;;;;;16.15;8.43;;;2.40;99.90;;;;;;5066836;28;20054;-58
2024/01/27 08:38:18;;;;;;;13.77;7.53;;;2.20;99.90;;;;;;5064627;28;20063;-61
2024/01/27 08:40:45;;;;;;;17.48;7.88;;;2.40;99.90;;;;;;5066715;28;20452;-59
2024/01/27 08:43:11;;;;;;;18.48;8.80;;;2.50;99.90;;;;;;5067578;28;20432;-62
2024/01/27 08:45:38;;;;;;;15.98;8.77;;;2.40;99.90;;;;;;5067746;28;20052;-62
2024/01/27 08:48:07;;;;;;;16.00;8.90;;;2.70;99.90;;;;;;5049953;28;20060;-62
2024/01/27 08:50:34;;;;;;;15.27;8.52;;;2.70;99.90;;;;;;5046511;28;20053;-61
2024/01/27 08:53:00;;;;;;;18.52;9.60;;;2.50;99.90;;;;;;5047558;28;20078;-60
2024/01/27 08:55:28;;;;;;;12.55;8.30;;;2.80;99.90;;;;;;5046293;28;20093;-59
2024/01/27 08:57:56;;;;;;;19.10;8.80;;;2.80;99.90;;;;;;5061506;28;20052;-58
2024/01/27 09:00:23;;;;;;;15.77;8.98;;;2.70;99.90;;;;;;5069994;28;20059;-62
2024/01/27 09:02:51;;;;;;;17.70;9.05;;;2.80;99.90;;;;;;5071381;28;20075;-60
2024/01/27 09:05:17;;;;;;;17.65;8.38;;;3.10;99.90;;;;;;5070887;28;20154;-61
2024/01/27 09:07:43;;;;;;;16.98;8.60;;;3.30;99.90;;;;;;5069169;28;20372;-60
2024/01/27 09:10:12;;;;;;;19.10;8.60;;;3.30;99.90;;;;;;5069994;28;20449;-59
2024/01/27 09:12:39;;;;;;;19.25;8.73;;;3.40;99.90;;;;;;5071432;28;20084;-59
2024/01/27 09:15:07;;;;;;;19.15;9.30;;;3.30;99.90;;;;;;5070886;28;20525;-59
2024/01/27 09:17:34;;;;;;;17.55;9.10;;;3.40;99.90;;;;;;5069655;28;20110;-60
2024/01/27 09:20:00;;;;;;;13.55;8.15;;;3.30;99.90;;;;;;5071303;28;20059;-61
2024/01/27 09:22:29;;;;;;;16.98;9.60;;;3.50;99.90;;;;;;5070366;28;20133;-61
2024/01/27 09:24:56;;;;;;;19.23;9.82;;;3.50;99.90;;;;;;5071490;28;20219;-60
2024/01/27 09:27:22;;;;;;;13.40;8.15;;;3.50;99.90;;;;;;5060864;28;20436;-59
2024/01/27 09:29:48;;;;;;;16.48;9.02;;;3.60;99.90;;;;;;5055710;28;20048;-59
2024/01/27 09:32:14;;;;;;;23.77;10.02;;;3.70;99.90;;;;;;5067356;28;20090;-60
2024/01/27 09:34:42;;;;;;;15.30;8.15;;;3.80;99.90;;;;;;5067382;28;20056;-61
2024/01/27 09:37:08;;;;;;;16.67;8.32;;;4.10;99.90;;;;;;5066339;28;20134;-60
2024/01/27 09:39:35;;;;;;;15.73;7.75;;;4.00;99.90;;;;;;5068257;28;20056;-61
2024/01/27 09:42:06;;;;;;;14.05;7.78;;;4.00;99.90;;;;;;5064675;28;20053;-60
2024/01/27 09:44:37;;;;;;;17.00;8.50;;;4.30;99.90;;;;;;5062398;28;20345;-61
2024/01/27 09:47:04;;;;;;;17.10;9.07;;;4.20;99.90;;;;;;5063663;28;20048;-62
2024/01/27 09:49:31;;;;;;;17.17;9.57;;;4.20;99.90;;;;;;5066303;28;20440;-62
2024/01/27 09:51:57;;;;;;;21.48;8.52;;;4.30;99.90;;;;;;5064691;28;20515;-61
2024/01/27 09:54:27;;;;;;;17.75;8.88;;;4.50;99.90;;;;;;5066090;28;20101;-60
2024/01/27 09:56:55;;;;;;;19.83;10.32;;;4.40;99.90;;;;;;5065577;28;20044;-61
2024/01/27 09:59:22;;;;;;;14.10;7.85;;;4.80;99.90;;;;;;5068870;28;20135;-59
2024/01/27 10:01:51;;;;;;;18.02;9.50;;;4.80;99.90;;;;;;5067784;28;20144;-63
2024/01/27 10:04:24;;;;;;;14.20;7.65;;;4.80;99.90;;;;;;5049765;28;20055;-60
2024/01/27 10:06:50;;;;;;;14.45;7.55;;;5.00;99.90;;;;;;5065391;28;20357;-60
2024/01/27 10:09:17;;;;;;;20.20;8.05;;;4.90;99.90;;;;;;5068449;28;20057;-63
2024/01/27 10:11:49;;;;;;;17.13;8.15;;;4.90;99.90;;;;;;5067745;28;20048;-62
2024/01/27 10:14:17;;;;;;;16.90;8.32;;;5.00;99.90;;;;;;5063494;28;20093;-62
2024/01/27 10:16:44;;;;;;;15.57;7.95;;;5.20;99.90;;;;;;5068626;28;20127;-61
2024/01/27 10:19:18;;;;;;;20.15;8.50;;;5.10;99.90;;;;;;5068910;28;20048;-63
2024/01/27 10:21:46;;;;;;;12.65;7.25;;;5.30;99.90;;;;;;5069980;28;20109;-60
2024/01/27 10:24:12;;;;;;;15.45;7.93;;;5.40;99.90;;;;;;5071656;28;20040;-62
2024/01/27 10:26:38;;;;;;;17.00;7.90;;;5.50;99.90;;;;;;5068544;28;20049;-62
2024/01/27 10:29:05;;;;;;;17.83;8.32;;;5.30;99.90;;;;;;5071298;28;20059;-62
2024/01/27 10:31:34;;;;;;;13.85;8.05;;;5.50;99.90;;;;;;5072131;28;20048;-60
2024/01/27 10:34:09;;;;;;;16.33;8.75;;;5.30;99.90;;;;;;5070591;28;20056;-61
2024/01/27 10:36:42;;;;;;;16.17;8.82;;;5.60;99.90;;;;;;5070389;28;20044;-62
2024/01/27 10:39:22;;;;;;;12.50;7.97;;;5.50;99.90;;;;;;5071602;28;20445;-60
2024/01/27 10:41:50;;;;;;;17.48;8.25;;;5.50;99.90;;;;;;5070982;28;20045;-60
2024/01/27 10:44:18;;;;;;;16.75;8.60;;;5.70;99.90;;;;;;5071387;28;20392;-63
2024/01/27 10:46:49;;;;;;;15.95;8.57;;;5.50;99.90;;;;;;5070658;28;20112;-61
2024/01/27 10:49:17;;;;;;;16.15;8.82;;;5.60;99.90;;;;;;5044302;28;20045;-61
2024/01/27 10:51:54;;;;;;;13.95;8.43;;;5.70;99.90;;;;;;5070110;28;20051;-60
2024/01/27 10:54:27;;;;;;;16.80;7.93;;;5.80;99.90;;;;;;5071875;28;20048;-61
2024/01/27 10:56:57;;;;;;;13.80;8.10;;;5.70;99.90;;;;;;5069985;28;20064;-61
2024/01/27 10:59:31;;;;;;;16.05;8.15;;;6.00;99.90;;;;;;5068885;28;20098;-60
2024/01/27 11:01:58;;;;;;;15.98;8.98;;;6.10;99.90;;;;;;5053325;28;20060;-60
2024/01/27 11:04:25;;;;;;;15.55;8.43;;;6.00;99.90;;;;;;5069906;28;20059;-60
2024/01/27 11:06:55;;;;;;;18.30;7.85;;;6.20;99.90;;;;;;5068837;28;20373;-62
2024/01/27 11:09:25;;;;;;;14.43;7.35;;;6.00;99.90;;;;;;5070111;28;20109;-61
2024/01/27 11:11:51;;;;;;;12.27;7.47;;;6.10;99.90;;;;;;5069606;28;20053;-60
2024/01/27 11:14:18;;;;;;;13.57;7.95;;;6.30;99.90;;;;;;5069243;28;20055;-63
2024/01/27 11:16:47;;;;;;;13.00;8.18;;;6.30;99.90;;;;;;5066958;28;20055;-62
2024/01/27 11:19:18;;;;;;;13.55;7.75;;;6.30;99.90;;;;;;5069690;28;20504;-61
2024/01/27 11:21:45;;;;;;;14.63;8.15;;;6.20;99.90;;;;;;5067480;28;20368;-62
2024/01/27 11:24:18;;;;;;;16.00;7.38;;;6.40;99.90;;;;;;5049350;28;20354;-59
2024/01/27 11:26:45;;;;;;;15.00;8.07;;;6.40;99.90;;;;;;5053399;28;20344;-61
2024/01/27 11:29:20;;;;;;;14.45;7.78;;;6.60;99.90;;;;;;5061080;28;20048;-60
2024/01/27 11:31:47;;;;;;;13.43;7.55;;;6.40;99.90;;;;;;5050846;28;20098;-63
2024/01/27 11:34:16;;;;;;;12.23;6.95;;;6.70;99.90;;;;;;5049697;28;20049;-62
2024/01/27 11:36:43;;;;;;;14.77;6.97;;;6.70;99.90;;;;;;5053417;28;20059;-61
2024/01/27 11:39:29;;;;;;;12.15;7.40;;;6.50;99.90;;;;;;5070220;28;20102;-62
2024/01/27 11:42:06;;;;;;;21.15;9.02;;;6.80;99.90;;;;;;5069963;28;20052;-61
2024/01/27 11:44:36;;;;;;;9.05;5.35;;;6.80;99.90;;;;;;5064798;28;20045;-61
2024/01/27 11:47:04;;;;;;;10.13;5.53;;;6.80;99.90;;;;;;5065402;28;20125;-61
2024/01/27 11:49:31;;;;;;;13.02;6.82;;;6.70;99.90;;;;;;5069941;28;20044;-60
2024/01/27 11:51:57;;;;;;;14.38;6.70;;;7.00;99.90;;;;;;5069624;28;20052;-61
2024/01/27 11:54:26;;;;;;;13.40;5.90;;;6.80;99.90;;;;;;5069780;28;20063;-62
2024/01/27 11:56:52;;;;;;;18.92;5.60;;;7.10;99.90;;;;;;5067606;28;20623;-61
2024/01/27 11:59:21;;;;;;;12.95;6.05;;;7.10;99.90;;;;;;5069788;28;20105;-61
2024/01/27 12:01:47;;;;;;;10.38;5.63;;;7.10;99.90;;;;;;5070243;28;20071;-61
2024/01/27 12:04:14;;;;;;;14.85;5.72;;;7.10;99.90;;;;;;5070557;28;20060;-62
2024/01/27 12:06:43;;;;;;;15.85;6.22;;;7.10;99.90;;;;;;5065318;28;20044;-60
2024/01/27 12:09:11;;;;;;;10.35;6.15;;;7.10;99.90;;;;;;5069303;28;20062;-62
2024/01/27 12:11:41;;;;;;;9.88;5.25;;;7.20;99.90;;;;;;5069452;28;20048;-61
2024/01/27 12:14:08;;;;;;;14.35;6.40;;;7.00;99.90;;;;;;5069598;28;20056;-61
2024/01/27 12:16:35;;;;;;;13.63;5.78;;;7.10;99.90;;;;;;5066842;28;20048;-61
2024/01/27 12:19:03;;;;;;;10.77;5.95;;;7.20;99.90;;;;;;5066793;28;20086;-62
2024/01/27 12:21:29;;;;;;;12.88;5.22;;;7.30;99.90;;;;;;5067634;28;20109;-62
2024/01/27 12:23:57;;;;;;;13.10;5.65;;;7.10;99.90;;;;;;5067533;28;20365;-62
2024/01/27 12:26:28;;;;;;;16.00;5.68;;;7.20;99.90;;;;;;5064874;28;20056;-61
2024/01/27 12:28:55;;;;;;;11.35;5.53;;;7.30;99.90;;;;;;5067374;28;20055;-61
2024/01/27 12:31:26;;;;;;;12.68;5.60;;;7.40;99.90;;;;;;5067743;28;20041;-63
2024/01/27 12:33:59;;;;;;;12.57;5.13;;;7.30;99.90;;;;;;5053187;28;20041;-62
2024/01/27 12:36:25;;;;;;;13.00;5.65;;;7.50;99.90;;;;;;5061768;28;20365;-63
2024/01/27 12:38:59;;;;;;;15.73;5.53;;;7.30;99.90;;;;;;5072549;28;20371;-62
2024/01/27 12:41:27;;;;;;;14.30;5.70;;;7.40;99.90;;;;;;5050505;28;20152;-60
2024/01/27 12:43:54;;;;;;;10.35;4.85;;;7.30;99.90;;;;;;5073191;28;20102;-61
2024/01/27 12:46:20;;;;;;;17.52;6.00;;;7.30;99.90;;;;;;5072771;28;20059;-61
2024/01/27 12:48:47;;;;;;;12.95;4.53;;;7.40;99.90;;;;;;5071590;28;20395;-62